createdAt,value
2023-04-15T00:01:45.707Z,9.68
2023-04-15T00:04:13.377Z,10.85
2023-04-15T00:06:41.059Z,8.83
2023-04-15T00:09:11.468Z,11.60
2023-04-15T00:11:39.526Z,9.55
2023-04-15T00:14:07.477Z,8.93
2023-04-15T00:16:38.678Z,9.23
2023-04-15T00:19:06.400Z,7.53
2023-04-15T00:21:35.912Z,8.45
2023-04-15T00:24:03.910Z,9.10
2023-04-15T00:26:33.192Z,8.73
2023-04-15T00:29:01.059Z,8.65
2023-04-15T00:31:29.817Z,10.57
2023-04-15T00:33:57.404Z,10.95
2023-04-15T00:36:25.702Z,10.30
2023-04-15T00:38:53.508Z,10.80
2023-04-15T00:41:21.126Z,14.50
2023-04-15T00:43:50.385Z,11.47
2023-04-15T00:46:18.463Z,10.85
2023-04-15T00:48:46.659Z,10.95
2023-04-15T00:51:16.102Z,13.05
2023-04-15T00:53:43.921Z,14.10
2023-04-15T00:56:12.051Z,14.23
2023-04-15T00:58:41.758Z,14.82
2023-04-15T01:01:11.486Z,16.70
2023-04-15T01:03:39.320Z,12.60
2023-04-15T01:06:07.484Z,15.43
2023-04-15T01:08:35.543Z,15.07
2023-04-15T01:11:04.112Z,12.63
2023-04-15T01:13:32.384Z,16.92
2023-04-15T01:16:00.228Z,16.08
2023-04-15T01:18:29.248Z,14.30
2023-04-15T01:20:57.353Z,13.53
2023-04-15T01:23:27.049Z,14.38
2023-04-15T01:25:57.393Z,14.98
2023-04-15T01:28:25.443Z,18.33
2023-04-15T01:31:06.006Z,16.50
2023-04-15T01:33:33.531Z,17.20
2023-04-15T01:36:01.612Z,13.32
2023-04-15T01:38:38.213Z,17.08
2023-04-15T01:41:08.224Z,17.85
2023-04-15T01:43:36.119Z,18.27
2023-04-15T01:46:04.049Z,16.70
2023-04-15T01:48:32.276Z,13.23
2023-04-15T01:51:00.100Z,18.50
2023-04-15T01:53:27.826Z,14.10
2023-04-15T01:55:55.600Z,13.57
2023-04-15T01:58:24.625Z,17.53
2023-04-15T02:00:52.385Z,16.35
2023-04-15T02:03:20.184Z,17.20
2023-04-15T02:05:48.029Z,15.98
2023-04-15T02:08:16.100Z,15.90
2023-04-15T02:10:43.796Z,15.87
2023-04-15T02:13:11.968Z,19.85
2023-04-15T02:15:41.188Z,15.77
2023-04-15T02:18:08.878Z,18.90
2023-04-15T02:20:36.789Z,17.27
2023-04-15T02:23:07.413Z,19.43
2023-04-15T02:25:34.963Z,14.77
2023-04-15T02:28:02.576Z,17.23
2023-04-15T02:30:30.543Z,14.18
2023-04-15T02:32:59.473Z,15.23
2023-04-15T02:35:27.224Z,16.60
2023-04-15T02:37:54.866Z,13.90
2023-04-15T02:40:22.792Z,14.80
2023-04-15T02:42:50.506Z,15.80
2023-04-15T02:45:20.512Z,12.40
2023-04-15T02:47:48.072Z,18.27
2023-04-15T02:50:17.312Z,10.98
2023-04-15T02:52:45.537Z,13.70
2023-04-15T02:55:13.271Z,16.75
2023-04-15T02:57:41.439Z,10.65
2023-04-15T03:00:11.774Z,16.27
2023-04-15T03:02:40.273Z,10.55
2023-04-15T03:05:09.233Z,13.38
2023-04-15T03:07:38.248Z,13.38
2023-04-15T03:10:06.298Z,12.05
2023-04-15T03:12:34.001Z,10.47
2023-04-15T03:15:09.172Z,14.75
2023-04-15T03:17:37.142Z,13.40
2023-04-15T03:20:05.895Z,13.90
2023-04-15T03:22:33.928Z,16.40
2023-04-15T03:25:04.182Z,15.43
2023-04-15T03:27:32.053Z,13.93
2023-04-15T03:29:59.657Z,15.32
2023-04-15T03:32:27.374Z,15.32
2023-04-15T03:34:54.997Z,17.60
2023-04-15T03:37:22.780Z,16.13
2023-04-15T03:39:50.524Z,14.65
2023-04-15T03:42:20.080Z,16.45
2023-04-15T03:44:47.705Z,15.10
2023-04-15T03:47:15.885Z,12.52
2023-04-15T03:49:43.885Z,14.30
2023-04-15T03:52:11.802Z,12.55
2023-04-15T03:54:39.996Z,13.13
2023-04-15T03:57:07.686Z,12.30
2023-04-15T03:59:36.848Z,15.23
2023-04-15T04:02:04.498Z,14.43
2023-04-15T04:04:32.194Z,12.77
2023-04-15T04:06:59.896Z,17.67
2023-04-15T04:09:27.829Z,13.25
2023-04-15T04:11:56.208Z,14.23
2023-04-15T04:14:29.286Z,11.50
2023-04-15T04:16:58.723Z,14.18
2023-04-15T04:19:26.340Z,11.57
2023-04-15T04:21:53.987Z,12.38
2023-04-15T04:24:21.768Z,15.00
2023-04-15T04:26:49.322Z,15.70
2023-04-15T04:29:17.289Z,13.02
2023-04-15T04:31:45.054Z,12.77
2023-04-15T04:34:14.050Z,13.43
2023-04-15T04:36:41.832Z,15.20
2023-04-15T04:39:09.456Z,13.53
2023-04-15T04:41:37.049Z,14.90
2023-04-15T04:44:05.040Z,14.25
2023-04-15T04:46:32.823Z,12.70
2023-04-15T04:49:00.387Z,16.02
2023-04-15T04:51:29.526Z,12.57
2023-04-15T04:53:57.361Z,11.85
2023-04-15T04:56:24.933Z,11.52
2023-04-15T04:58:52.668Z,11.52
2023-04-15T05:01:20.801Z,11.95
2023-04-15T05:03:48.592Z,11.87
2023-04-15T05:06:16.458Z,12.75
2023-04-15T05:08:47.427Z,13.32
2023-04-15T05:11:15.012Z,13.35
2023-04-15T05:13:45.502Z,14.95
2023-04-15T05:16:13.303Z,13.83
2023-04-15T05:18:40.851Z,13.30
2023-04-15T05:21:08.582Z,17.42
2023-04-15T05:23:36.203Z,12.32
2023-04-15T05:26:05.112Z,13.15
2023-04-15T05:28:32.961Z,12.60
2023-04-15T05:31:00.652Z,12.50
2023-04-15T05:33:28.489Z,10.98
2023-04-15T05:35:56.410Z,13.27
2023-04-15T05:38:24.044Z,14.18
2023-04-15T05:40:53.347Z,14.10
2023-04-15T05:43:22.401Z,12.93
2023-04-15T05:45:50.605Z,14.05
2023-04-15T05:48:18.165Z,13.13
2023-04-15T05:50:45.893Z,14.73
2023-04-15T05:53:13.513Z,13.20
2023-04-15T05:55:41.075Z,13.88
2023-04-15T05:58:08.761Z,12.23
2023-04-15T06:00:37.840Z,13.80
2023-04-15T06:03:06.230Z,12.63
2023-04-15T06:05:34.727Z,14.03
2023-04-15T06:08:02.627Z,11.00
2023-04-15T06:10:30.887Z,15.02
2023-04-15T06:12:58.507Z,15.88
2023-04-15T06:15:26.128Z,11.05
2023-04-15T06:17:55.176Z,11.27
2023-04-15T06:23:10.968Z,10.60
2023-04-15T06:25:38.547Z,13.93
2023-04-15T06:28:10.849Z,12.43
2023-04-15T06:30:38.618Z,13.07
2023-04-15T06:33:07.900Z,12.15
2023-04-15T06:35:35.916Z,14.43
2023-04-15T06:38:03.710Z,14.45
2023-04-15T06:40:31.306Z,14.00
2023-04-15T06:42:59.121Z,14.00
2023-04-15T06:45:26.919Z,13.48
2023-04-15T06:47:54.594Z,14.63
2023-04-15T06:50:23.987Z,13.50
2023-04-15T06:52:53.869Z,13.48
2023-04-15T06:55:21.515Z,17.40
2023-04-15T06:57:49.137Z,18.67
2023-04-15T07:00:17.642Z,20.23
2023-04-15T07:02:45.608Z,16.52
2023-04-15T07:05:13.167Z,13.65
2023-04-15T07:07:42.285Z,14.80
2023-04-15T07:10:11.976Z,16.13
2023-04-15T07:12:39.727Z,18.48
2023-04-15T07:15:08.236Z,20.42
2023-04-15T07:17:36.147Z,19.70
2023-04-15T07:20:05.056Z,17.37
2023-04-15T07:22:32.711Z,16.38
2023-04-15T07:25:02.082Z,17.67
2023-04-15T07:27:29.820Z,16.55
2023-04-15T07:29:57.611Z,19.05
2023-04-15T07:32:29.442Z,15.10
2023-04-15T07:34:57.085Z,14.63
2023-04-15T07:37:29.504Z,15.02
2023-04-15T07:39:57.464Z,15.60
2023-04-15T07:42:26.521Z,15.23
2023-04-15T07:44:54.348Z,14.73
2023-04-15T07:47:22.178Z,13.77
2023-04-15T07:49:51.435Z,15.00
2023-04-15T07:52:20.028Z,16.88
2023-04-15T07:54:48.279Z,15.45
2023-04-15T07:57:17.021Z,15.43
2023-04-15T07:59:46.247Z,15.20
2023-04-15T08:02:14.356Z,14.30
2023-04-15T08:04:42.575Z,17.92
2023-04-15T08:07:13.591Z,13.02
2023-04-15T08:09:41.303Z,13.77
2023-04-15T08:12:12.485Z,13.45
2023-04-15T08:14:40.437Z,14.45
2023-04-15T08:17:09.374Z,14.88
2023-04-15T08:19:36.952Z,11.75
2023-04-15T08:22:04.797Z,12.50
2023-04-15T08:24:37.727Z,13.90
2023-04-15T08:27:08.156Z,13.40
2023-04-15T08:29:36.388Z,12.10
2023-04-15T08:32:03.938Z,10.40
2023-04-15T08:34:33.112Z,12.33
2023-04-15T08:37:00.972Z,11.40
2023-04-15T08:39:29.247Z,12.55
2023-04-15T08:41:58.835Z,13.40
2023-04-15T08:44:27.076Z,14.80
2023-04-15T08:46:55.656Z,10.93
2023-04-15T08:49:23.526Z,11.48
2023-04-15T08:51:52.663Z,11.48
2023-04-15T08:54:26.753Z,11.80
2023-04-15T08:56:55.105Z,12.20
2023-04-15T08:59:26.209Z,10.10
2023-04-15T09:01:56.577Z,9.52
2023-04-15T09:04:24.260Z,9.00
2023-04-15T09:06:53.493Z,8.85
2023-04-15T09:09:21.050Z,9.02
2023-04-15T09:11:50.005Z,9.73
2023-04-15T09:14:18.381Z,10.27
2023-04-15T09:16:59.816Z,9.00
2023-04-15T09:19:30.950Z,10.63
2023-04-15T09:22:00.476Z,9.93
2023-04-15T09:24:37.771Z,8.63
2023-04-15T09:27:06.169Z,8.90
2023-04-15T09:29:37.116Z,9.93
2023-04-15T09:32:12.102Z,11.50
2023-04-15T09:34:39.824Z,8.32
2023-04-15T09:37:10.808Z,8.73
2023-04-15T09:39:50.095Z,7.95
2023-04-15T09:42:24.697Z,7.93
2023-04-15T09:44:54.129Z,7.57
2023-04-15T09:47:29.013Z,10.13
2023-04-15T09:49:58.463Z,10.57
2023-04-15T09:52:27.459Z,7.68
2023-04-15T09:54:56.523Z,7.45
2023-04-15T09:57:24.859Z,7.18
2023-04-15T09:59:52.544Z,8.02
2023-04-15T10:02:20.795Z,7.47
2023-04-15T10:04:49.341Z,7.78
2023-04-15T10:07:20.531Z,7.15
2023-04-15T10:10:05.901Z,7.30
2023-04-15T10:12:34.157Z,6.18
2023-04-15T10:15:04.838Z,7.80
2023-04-15T10:17:35.616Z,7.53
2023-04-15T10:20:04.792Z,8.15
2023-04-15T10:22:32.921Z,6.93
2023-04-15T10:25:04.345Z,6.28
2023-04-15T10:27:32.146Z,6.97
2023-04-15T10:30:01.663Z,6.13
2023-04-15T10:32:29.587Z,5.97
2023-04-15T10:34:58.192Z,6.05
2023-04-15T10:37:34.867Z,8.65
2023-04-15T10:40:23.938Z,6.40
2023-04-15T10:42:51.675Z,7.38
2023-04-15T10:45:19.894Z,7.85
2023-04-15T10:47:48.376Z,8.02
2023-04-15T10:50:16.509Z,7.28
2023-04-15T10:52:45.222Z,7.47
2023-04-15T10:55:27.412Z,6.43
2023-04-15T10:57:56.100Z,7.15
2023-04-15T11:00:26.558Z,7.53
2023-04-15T11:02:55.731Z,7.80
2023-04-15T11:05:24.044Z,6.80
2023-04-15T11:07:53.104Z,7.60
2023-04-15T11:10:35.749Z,9.38
2023-04-15T11:13:06.538Z,5.68
2023-04-15T11:15:35.199Z,7.32
2023-04-15T11:18:10.603Z,7.50
2023-04-15T11:20:38.695Z,6.50
2023-04-15T11:23:14.368Z,6.57
2023-04-15T11:25:43.808Z,6.57
2023-04-15T11:28:13.846Z,6.47
2023-04-15T11:30:41.941Z,6.83
2023-04-15T11:33:14.225Z,8.60
2023-04-15T11:35:43.007Z,6.18
2023-04-15T11:38:11.895Z,7.00
2023-04-15T11:40:40.018Z,6.35
2023-04-15T11:43:08.376Z,5.17
2023-04-15T11:45:37.892Z,6.35
2023-04-15T11:48:09.682Z,5.25
2023-04-15T11:50:37.912Z,6.43
2023-04-15T11:53:08.338Z,6.10
2023-04-15T11:55:43.247Z,6.03
2023-04-15T11:58:11.478Z,6.30
2023-04-15T12:00:41.218Z,7.10
2023-04-15T12:03:16.305Z,6.68
2023-04-15T12:06:03.117Z,5.95
2023-04-15T12:08:45.622Z,4.67
2023-04-15T12:11:13.354Z,6.00
2023-04-15T12:13:44.677Z,6.47
2023-04-15T12:16:13.778Z,5.57
2023-04-15T12:18:41.391Z,5.32
2023-04-15T12:21:10.811Z,4.83
2023-04-15T12:23:38.768Z,6.35
2023-04-15T12:26:06.669Z,6.57
2023-04-15T12:28:35.406Z,6.60
2023-04-15T12:31:08.154Z,6.60
2023-04-15T12:33:37.180Z,5.27
2023-04-15T12:36:06.354Z,6.90
2023-04-15T12:38:34.004Z,6.20
2023-04-15T12:41:01.895Z,4.28
2023-04-15T12:43:29.536Z,4.95
2023-04-15T12:46:00.772Z,5.90
2023-04-15T12:48:28.327Z,4.18
2023-04-15T12:50:57.386Z,5.47
2023-04-15T12:53:25.095Z,7.18
2023-04-15T12:55:52.710Z,6.43
2023-04-15T12:58:20.299Z,5.13
2023-04-15T13:00:49.724Z,6.25
2023-04-15T13:03:17.565Z,5.32
2023-04-15T13:05:45.479Z,5.78
2023-04-15T13:08:15.072Z,5.00
2023-04-15T13:10:43.621Z,4.83
2023-04-15T13:13:11.369Z,6.00
2023-04-15T13:15:38.960Z,6.20
2023-04-15T13:18:07.749Z,5.05
2023-04-15T13:20:35.457Z,5.10
2023-04-15T13:23:03.417Z,4.93
2023-04-15T13:25:32.456Z,5.63
2023-04-15T13:28:01.266Z,4.65
2023-04-15T13:30:29.353Z,5.22
2023-04-15T13:32:59.406Z,4.85
2023-04-15T13:35:27.192Z,6.80
2023-04-15T13:37:55.112Z,6.28
2023-04-15T13:40:22.735Z,6.32
2023-04-15T13:42:52.374Z,6.07
2023-04-15T13:45:20.177Z,4.32
2023-04-15T13:47:47.794Z,6.07
2023-04-15T13:50:15.825Z,4.75
2023-04-15T13:52:47.307Z,6.20
2023-04-15T13:55:19.167Z,5.85
2023-04-15T13:57:48.574Z,6.15
2023-04-15T14:00:17.803Z,5.23
2023-04-15T14:02:45.965Z,6.03
2023-04-15T14:05:13.765Z,6.63
2023-04-15T14:07:41.951Z,5.40
2023-04-15T14:10:09.765Z,5.63
2023-04-15T14:12:37.385Z,5.30
2023-04-15T14:15:05.303Z,5.25
2023-04-15T14:17:35.347Z,4.95
2023-04-15T14:20:03.304Z,8.88
2023-04-15T14:22:30.964Z,5.13
2023-04-15T14:24:58.613Z,5.53
2023-04-15T14:27:27.157Z,5.13
2023-04-15T14:29:54.938Z,5.50
2023-04-15T14:32:22.528Z,5.63
2023-04-15T14:34:51.697Z,4.40
2023-04-15T14:37:19.384Z,5.13
2023-04-15T14:39:47.237Z,5.40
2023-04-15T14:42:15.127Z,5.68
2023-04-15T14:44:44.718Z,5.78
2023-04-15T14:47:12.341Z,4.47
2023-04-15T14:49:42.595Z,5.33
2023-04-15T14:52:11.600Z,5.22
2023-04-15T14:54:39.205Z,5.43
2023-04-15T14:57:07.981Z,6.05
2023-04-15T14:59:35.781Z,6.35
2023-04-15T15:02:03.901Z,6.40
2023-04-15T15:04:33.517Z,6.32
2023-04-15T15:07:01.557Z,5.88
2023-04-15T15:09:30.468Z,5.53
2023-04-15T15:11:58.263Z,5.88
2023-04-15T15:14:26.441Z,4.47
2023-04-15T15:16:54.244Z,5.55
2023-04-15T15:19:22.068Z,5.07
2023-04-15T15:21:49.737Z,5.55
2023-04-15T15:24:17.482Z,5.70
2023-04-15T15:26:46.577Z,4.33
2023-04-15T15:29:14.844Z,4.68
2023-04-15T15:31:42.574Z,4.85
2023-04-15T15:34:15.191Z,5.03
2023-04-15T15:36:42.944Z,6.45
2023-04-15T15:39:11.419Z,4.57
2023-04-15T15:41:39.091Z,4.90
2023-04-15T15:44:08.595Z,4.53
2023-04-15T15:46:36.223Z,4.38
2023-04-15T15:49:04.336Z,4.75
2023-04-15T15:51:32.156Z,5.10
2023-04-15T15:53:59.772Z,4.80
2023-04-15T15:56:35.294Z,4.38
2023-04-15T15:59:03.024Z,4.55
2023-04-15T16:01:32.255Z,4.45
2023-04-15T16:04:01.359Z,4.20
2023-04-15T16:06:29.363Z,5.18
2023-04-15T16:08:56.923Z,3.70
2023-04-15T16:11:25.047Z,3.97
2023-04-15T16:13:52.748Z,4.05
2023-04-15T16:16:20.421Z,4.37
2023-04-15T16:18:51.209Z,3.60
2023-04-15T16:21:20.219Z,3.42
2023-04-15T16:23:47.801Z,3.90
2023-04-15T16:26:16.457Z,5.57
2023-04-15T16:28:44.012Z,4.10
2023-04-15T16:31:12.851Z,4.47
2023-04-15T16:33:40.603Z,4.40
2023-04-15T16:36:09.637Z,4.53
2023-04-15T16:38:37.335Z,3.63
2023-04-15T16:41:06.533Z,4.00
2023-04-15T16:43:34.257Z,4.90
2023-04-15T16:46:01.846Z,5.20
2023-04-15T16:48:29.821Z,4.00
2023-04-15T16:50:58.202Z,5.43
2023-04-15T16:53:27.123Z,4.17
2023-04-15T16:55:54.867Z,6.07
2023-04-15T16:58:22.537Z,5.53
2023-04-15T17:00:51.109Z,4.25
2023-04-15T17:03:18.905Z,5.05
2023-04-15T17:05:46.645Z,3.73
2023-04-15T17:08:14.216Z,3.85
2023-04-15T17:10:44.278Z,3.65
2023-04-15T17:13:11.970Z,4.43
2023-04-15T17:15:40.813Z,7.18
2023-04-15T17:18:09.892Z,5.17
2023-04-15T17:20:37.626Z,5.38
2023-04-15T17:23:06.819Z,9.18
2023-04-15T17:25:34.694Z,4.88
2023-04-15T17:28:04.214Z,6.70
2023-04-15T17:30:31.769Z,5.20
2023-04-15T17:32:59.526Z,5.22
2023-04-15T17:35:27.390Z,4.20
2023-04-15T17:37:57.209Z,3.47
2023-04-15T17:40:25.048Z,3.70
2023-04-15T17:42:52.829Z,3.87
2023-04-15T17:45:21.749Z,4.07
2023-04-15T17:47:49.423Z,3.47
2023-04-15T17:50:17.938Z,4.25
2023-04-15T17:52:48.417Z,3.60
2023-04-15T17:55:16.424Z,3.87
2023-04-15T17:57:46.288Z,4.88
2023-04-15T18:00:14.765Z,5.07
2023-04-15T18:02:44.316Z,4.72
2023-04-15T18:05:12.312Z,4.35
2023-04-15T18:07:39.909Z,4.60
2023-04-15T18:10:08.571Z,4.10
2023-04-15T18:12:36.327Z,4.18
2023-04-15T18:15:04.367Z,3.78
2023-04-15T18:17:32.029Z,3.42
2023-04-15T18:20:01.143Z,4.20
2023-04-15T18:22:28.764Z,4.22
2023-04-15T18:24:59.147Z,4.22
2023-04-15T18:27:26.821Z,4.20
2023-04-15T18:29:54.383Z,4.57
2023-04-15T18:32:22.077Z,4.20
2023-04-15T18:34:49.865Z,4.15
2023-04-15T18:37:18.817Z,4.45
2023-04-15T18:39:46.508Z,4.72
2023-04-15T18:42:16.099Z,4.88
2023-04-15T18:44:43.742Z,7.30
2023-04-15T18:47:11.452Z,12.43
2023-04-15T18:49:39.254Z,8.20
2023-04-15T18:52:07.148Z,5.85
2023-04-15T18:54:37.635Z,6.70
2023-04-15T18:57:05.787Z,4.73
2023-04-15T18:59:33.765Z,5.00
2023-04-15T19:02:02.139Z,5.65
2023-04-15T19:04:30.050Z,4.65
2023-04-15T19:06:58.782Z,4.32
2023-04-15T19:09:26.434Z,5.70
2023-04-15T19:11:56.802Z,4.43
2023-04-15T19:14:24.509Z,5.45
2023-04-15T19:16:52.176Z,4.45
2023-04-15T19:19:19.864Z,5.90
2023-04-15T19:21:49.745Z,4.80
2023-04-15T19:24:18.206Z,4.35
2023-04-15T19:26:48.308Z,7.65
2023-04-15T19:29:17.766Z,8.40
2023-04-15T19:31:45.516Z,5.28
2023-04-15T19:34:13.278Z,7.03
2023-04-15T19:36:40.862Z,6.30
2023-04-15T19:39:08.668Z,8.57
2023-04-15T19:41:36.465Z,16.20
2023-04-15T19:44:04.456Z,20.40
2023-04-15T19:46:33.616Z,15.43
2023-04-15T19:49:01.460Z,15.32
2023-04-15T19:51:29.429Z,11.20
2023-04-15T19:53:57.481Z,10.85
2023-04-15T19:56:25.334Z,9.65
2023-04-15T19:58:53.971Z,9.77
2023-04-15T20:01:21.873Z,7.80
2023-04-15T20:03:52.378Z,11.48
2023-04-15T20:06:19.981Z,7.13
2023-04-15T20:08:47.888Z,6.93
2023-04-15T20:11:16.339Z,6.70
2023-04-15T20:13:43.973Z,7.53
2023-04-15T20:16:11.817Z,6.70
2023-04-15T20:18:39.447Z,7.78
2023-04-15T20:21:08.548Z,6.70
2023-04-15T20:23:37.084Z,7.97
2023-04-15T20:26:04.831Z,9.98
2023-04-15T20:28:32.425Z,12.48
2023-04-15T20:31:00.501Z,13.85
2023-04-15T20:33:28.435Z,11.38
2023-04-15T20:35:56.509Z,10.30
2023-04-15T20:38:25.608Z,9.98
2023-04-15T20:40:53.314Z,10.80
2023-04-15T20:43:22.311Z,10.73
2023-04-15T20:45:50.971Z,9.95
2023-04-15T20:48:19.929Z,9.83
2023-04-15T20:50:47.487Z,9.73
2023-04-15T20:53:15.300Z,9.10
2023-04-15T20:55:44.773Z,11.88
2023-04-15T20:58:12.664Z,8.80
2023-04-15T21:00:40.483Z,9.40
2023-04-15T21:03:08.429Z,8.38
2023-04-15T21:05:36.281Z,8.20
2023-04-15T21:08:03.902Z,7.25
2023-04-15T21:10:35.377Z,8.98
2023-04-15T21:13:04.423Z,10.03
2023-04-15T21:15:31.998Z,11.68
2023-04-15T21:17:59.878Z,14.43
2023-04-15T21:20:28.043Z,11.38
2023-04-15T21:22:58.478Z,10.60
2023-04-15T21:25:26.378Z,13.27
2023-04-15T21:27:54.300Z,11.52
2023-04-15T21:30:25.509Z,11.52
2023-04-15T21:32:56.001Z,10.80
2023-04-15T21:35:23.736Z,9.63
2023-04-15T21:37:51.278Z,12.00
2023-04-15T21:40:19.554Z,8.70
2023-04-15T21:42:48.777Z,13.57
2023-04-15T21:45:16.579Z,12.68
2023-04-15T21:47:57.023Z,12.57
2023-04-15T21:50:33.317Z,11.00
2023-04-15T21:53:06.613Z,13.93
2023-04-15T21:55:34.452Z,13.43
2023-04-15T21:58:02.174Z,7.80
2023-04-15T22:00:30.113Z,8.00
2023-04-15T22:02:59.782Z,8.27
2023-04-15T22:05:27.572Z,7.70
2023-04-15T22:07:59.836Z,8.20
2023-04-15T22:10:28.603Z,7.43
2023-04-15T22:12:56.988Z,7.85
2023-04-15T22:15:24.711Z,8.63
2023-04-15T22:17:52.292Z,8.02
2023-04-15T22:20:21.910Z,8.75
2023-04-15T22:22:49.570Z,8.48
2023-04-15T22:25:22.442Z,9.95
2023-04-15T22:27:50.138Z,9.03
2023-04-15T22:30:17.682Z,9.48
2023-04-15T22:32:45.426Z,8.48
2023-04-15T22:35:13.225Z,9.30
2023-04-15T22:37:42.202Z,6.82
2023-04-15T22:40:11.827Z,7.93
2023-04-15T22:42:39.909Z,8.18
2023-04-15T22:45:08.425Z,8.20
2023-04-15T22:47:36.241Z,7.47
2023-04-15T22:50:03.903Z,8.15
2023-04-15T22:52:31.567Z,8.63
2023-04-15T22:55:00.688Z,7.65
2023-04-15T22:57:28.880Z,7.97
2023-04-15T22:59:56.435Z,8.82
2023-04-15T23:02:24.294Z,7.47
2023-04-15T23:04:52.296Z,7.20
2023-04-15T23:07:19.904Z,7.18
2023-04-15T23:09:47.912Z,7.90
2023-04-15T23:12:17.510Z,7.45
2023-04-15T23:14:45.115Z,7.30
2023-04-15T23:17:12.813Z,6.77
2023-04-15T23:19:40.724Z,8.75
2023-04-15T23:22:10.563Z,8.38
2023-04-15T23:24:38.492Z,8.50
2023-04-15T23:27:06.127Z,7.75
2023-04-15T23:29:36.081Z,6.90
2023-04-15T23:32:03.830Z,7.55
2023-04-15T23:34:35.194Z,7.00
2023-04-15T23:37:03.103Z,9.55
2023-04-15T23:39:31.296Z,8.60
2023-04-15T23:41:58.963Z,8.80
2023-04-15T23:44:27.050Z,7.55
2023-04-15T23:46:56.257Z,8.13
2023-04-15T23:49:24.030Z,6.47
2023-04-15T23:51:51.653Z,8.45
2023-04-15T23:54:19.528Z,7.43
2023-04-15T23:56:48.281Z,6.03
2023-04-15T23:59:16.182Z,7.38
